createdAt,value
2023-02-14T00:01:12.785Z,38.35
2023-02-14T00:03:40.271Z,40.95
2023-02-14T00:06:09.501Z,41.33
2023-02-14T00:08:36.916Z,38.05
2023-02-14T00:11:05.455Z,40.95
2023-02-14T00:13:32.451Z,38.40
2023-02-14T00:15:59.337Z,38.17
2023-02-14T00:18:49.185Z,38.97
2023-02-14T00:21:16.137Z,40.08
2023-02-14T00:23:43.486Z,39.88
2023-02-14T00:26:15.172Z,40.75
2023-02-14T00:28:43.533Z,40.10
2023-02-14T00:31:10.634Z,40.00
2023-02-14T00:33:37.897Z,44.70
2023-02-14T00:36:07.077Z,41.17
2023-02-14T00:38:34.886Z,44.78
2023-02-14T00:41:02.450Z,41.70
2023-02-14T00:43:29.628Z,40.92
2023-02-14T00:45:57.496Z,41.20
2023-02-14T00:48:24.588Z,40.78
2023-02-14T00:50:51.512Z,41.78
2023-02-14T00:53:18.362Z,45.22
2023-02-14T00:55:47.070Z,44.83
2023-02-14T00:58:15.089Z,45.90
2023-02-14T01:00:41.994Z,49.63
2023-02-14T01:03:08.993Z,46.97
2023-02-14T01:05:35.982Z,47.30
2023-02-14T01:08:04.740Z,51.53
2023-02-14T01:10:31.879Z,46.25
2023-02-14T01:12:58.996Z,47.20
2023-02-14T01:15:27.676Z,45.90
2023-02-14T01:17:54.536Z,45.17
2023-02-14T01:20:22.131Z,47.40
2023-02-14T01:22:49.025Z,42.35
2023-02-14T01:25:16.343Z,43.55
2023-02-14T01:27:43.278Z,44.60
2023-02-14T01:30:11.262Z,40.65
2023-02-14T01:32:38.106Z,41.20
2023-02-14T01:35:05.285Z,43.47
2023-02-14T01:37:32.215Z,42.60
2023-02-14T01:39:59.448Z,44.22
2023-02-14T01:42:27.568Z,42.50
2023-02-14T01:44:59.796Z,45.08
2023-02-14T01:47:28.964Z,45.72
2023-02-14T01:50:00.213Z,42.40
2023-02-14T01:52:34.946Z,45.55
2023-02-14T01:55:08.535Z,47.25
2023-02-14T01:57:46.455Z,44.23
2023-02-14T02:00:32.827Z,42.70
2023-02-14T02:03:01.211Z,44.53
2023-02-14T02:05:28.177Z,44.17
2023-02-14T02:07:59.117Z,44.72
2023-02-14T02:10:28.156Z,41.47
2023-02-14T02:13:00.010Z,42.63
2023-02-14T02:15:31.292Z,42.50
2023-02-14T02:18:19.837Z,39.65
2023-02-14T02:21:16.730Z,41.83
2023-02-14T02:23:54.729Z,43.22
2023-02-14T02:26:49.484Z,42.63
2023-02-14T02:29:53.937Z,45.30
2023-02-14T02:32:48.803Z,42.05
2023-02-14T02:35:21.611Z,46.42
2023-02-14T02:38:07.353Z,46.70
2023-02-14T02:40:46.566Z,45.35
2023-02-14T02:43:49.548Z,44.50
2023-02-14T02:46:42.960Z,46.03
2023-02-14T02:49:47.375Z,48.03
2023-02-14T02:52:46.864Z,47.80
2023-02-14T02:55:21.546Z,51.22
2023-02-14T02:57:51.571Z,50.53
2023-02-14T03:00:21.604Z,48.95
2023-02-14T03:03:11.386Z,50.97
2023-02-14T03:05:38.701Z,46.88
2023-02-14T03:08:06.117Z,44.60
2023-02-14T03:10:38.192Z,49.90
2023-02-14T03:28:20.009Z,47.47
2023-02-14T03:31:11.481Z,49.53
2023-02-14T03:34:07.111Z,48.13
2023-02-14T03:36:38.279Z,49.15
2023-02-14T03:39:16.374Z,47.75
2023-02-14T03:41:53.546Z,48.92
2023-02-14T03:44:25.937Z,46.95
2023-02-14T03:46:58.779Z,48.95
2023-02-14T03:49:31.114Z,48.58
2023-02-14T03:52:01.155Z,48.08
2023-02-14T03:54:30.509Z,48.80
2023-02-14T03:57:20.847Z,53.78
2023-02-14T03:59:48.861Z,49.35
2023-02-14T04:02:30.337Z,49.22
2023-02-14T04:08:08.671Z,51.90
2023-02-14T04:10:35.860Z,51.65
2023-02-14T04:13:02.823Z,48.90
2023-02-14T04:15:29.901Z,47.92
2023-02-14T04:18:15.459Z,45.83
2023-02-14T04:20:42.336Z,46.25
2023-02-14T04:23:09.237Z,48.25
2023-02-14T04:25:36.195Z,46.33
2023-02-14T04:28:02.977Z,47.28
2023-02-14T04:30:29.824Z,45.85
2023-02-14T04:32:57.012Z,41.70
2023-02-14T04:35:23.885Z,42.92
2023-02-14T04:37:50.765Z,38.35
2023-02-14T04:40:17.670Z,39.97
2023-02-14T04:42:45.762Z,41.33
2023-02-14T04:45:13.424Z,38.30
2023-02-14T04:47:40.476Z,39.13
2023-02-14T04:50:07.929Z,40.50
2023-02-14T04:52:34.802Z,37.88
2023-02-14T04:55:01.915Z,39.10
2023-02-14T04:57:29.554Z,37.15
2023-02-14T04:59:56.434Z,36.22
2023-02-14T05:02:23.552Z,38.78
2023-02-14T05:04:50.717Z,35.83
2023-02-14T05:07:17.812Z,36.78
2023-02-14T05:09:44.716Z,39.17
2023-02-14T05:12:11.651Z,36.22
2023-02-14T05:14:38.552Z,39.67
2023-02-14T05:17:05.406Z,35.13
2023-02-14T05:19:32.497Z,34.05
2023-02-14T05:21:59.411Z,36.55
2023-02-14T05:24:26.399Z,32.58
2023-02-14T05:26:53.196Z,34.75
2023-02-14T05:29:20.146Z,32.40
2023-02-14T05:31:47.184Z,32.30
2023-02-14T05:34:14.092Z,32.90
2023-02-14T05:36:40.951Z,32.35
2023-02-14T05:39:07.789Z,30.40
2023-02-14T05:41:34.702Z,30.95
2023-02-14T05:44:02.014Z,30.90
2023-02-14T05:46:28.990Z,29.38
2023-02-14T05:48:55.835Z,30.40
2023-02-14T05:51:22.678Z,30.08
2023-02-14T05:53:49.592Z,29.08
2023-02-14T05:56:16.543Z,29.88
2023-02-14T05:58:44.114Z,27.60
2023-02-14T06:01:11.107Z,28.27
2023-02-14T06:03:38.049Z,27.95
2023-02-14T06:06:05.153Z,27.15
2023-02-14T06:08:32.095Z,28.83
2023-02-14T06:10:59.283Z,31.65
2023-02-14T06:13:26.286Z,30.00
2023-02-14T06:15:53.126Z,30.75
2023-02-14T06:18:20.054Z,31.08
2023-02-14T06:20:46.826Z,30.00
2023-02-14T06:23:13.780Z,31.42
2023-02-14T06:25:40.632Z,35.55
2023-02-14T06:28:07.522Z,35.25
2023-02-14T06:30:34.520Z,33.13
2023-02-14T06:33:01.555Z,34.08
2023-02-14T06:35:28.571Z,33.90
2023-02-14T06:37:55.459Z,33.33
2023-02-14T06:40:22.455Z,35.03
2023-02-14T06:42:49.362Z,35.75
2023-02-14T06:45:16.507Z,33.50
2023-02-14T06:47:43.331Z,34.08
2023-02-14T06:50:11.827Z,36.75
2023-02-14T06:52:44.741Z,31.65
2023-02-14T06:55:13.937Z,32.28
2023-02-14T06:57:40.865Z,37.60
2023-02-14T07:00:08.816Z,33.90
2023-02-14T07:02:35.781Z,35.70
2023-02-14T07:05:02.748Z,38.33
2023-02-14T07:07:29.591Z,39.55
2023-02-14T07:09:56.483Z,37.05
2023-02-14T07:12:23.362Z,35.80
2023-02-14T07:14:50.310Z,35.30
2023-02-14T07:17:17.184Z,37.83
2023-02-14T07:19:44.011Z,37.53
2023-02-14T07:22:11.011Z,39.20
2023-02-14T07:24:37.865Z,40.67
2023-02-14T07:27:04.749Z,41.38
2023-02-14T07:29:31.608Z,39.35
2023-02-14T07:31:58.689Z,37.20
2023-02-14T07:34:27.270Z,37.45
2023-02-14T07:36:54.195Z,37.45
2023-02-14T07:39:21.076Z,36.45
2023-02-14T07:41:50.843Z,36.90
2023-02-14T07:44:20.358Z,37.20
2023-02-14T07:46:47.285Z,37.95
2023-02-14T07:49:14.357Z,40.15
2023-02-14T07:51:41.442Z,39.00
2023-02-14T07:54:08.300Z,39.03
2023-02-14T07:56:35.383Z,39.17
2023-02-14T07:59:02.285Z,39.08
2023-02-14T08:01:29.201Z,41.30
2023-02-14T08:03:56.128Z,38.28
2023-02-14T08:06:22.981Z,36.10
2023-02-14T08:08:49.899Z,33.28
2023-02-14T08:11:36.687Z,33.55
2023-02-14T08:14:04.927Z,28.48
2023-02-14T08:16:34.394Z,30.00
2023-02-14T08:19:02.117Z,29.02
2023-02-14T08:21:29.212Z,28.08
2023-02-14T08:23:57.057Z,26.67
2023-02-14T08:26:24.062Z,28.88
2023-02-14T08:28:51.168Z,29.80
2023-02-14T08:31:36.442Z,28.90
2023-02-14T08:34:05.613Z,26.10
2023-02-14T08:36:33.028Z,29.23
2023-02-14T08:38:59.965Z,27.60
2023-02-14T08:41:26.779Z,27.10
2023-02-14T08:43:53.608Z,27.70
2023-02-14T08:46:20.567Z,27.40
2023-02-14T08:48:47.633Z,26.50
2023-02-14T08:51:15.152Z,27.52
2023-02-14T08:53:43.201Z,29.10
2023-02-14T08:56:13.662Z,29.40
2023-02-14T08:58:41.021Z,29.70
2023-02-14T09:01:14.066Z,28.88
2023-02-14T09:03:42.111Z,29.80
2023-02-14T09:06:12.420Z,28.35
2023-02-14T09:08:39.672Z,30.73
2023-02-14T09:11:22.355Z,29.70
2023-02-14T09:13:51.423Z,30.13
2023-02-14T09:16:19.366Z,28.52
2023-02-14T09:18:47.609Z,29.33
2023-02-14T09:21:17.474Z,32.90
2023-02-14T09:23:44.790Z,28.20
2023-02-14T09:26:14.130Z,28.35
2023-02-14T09:28:41.481Z,30.83
2023-02-14T09:31:11.376Z,27.60
2023-02-14T09:33:57.014Z,27.02
2023-02-14T09:36:42.606Z,27.23
2023-02-14T09:39:10.509Z,26.13
2023-02-14T09:41:40.093Z,29.77
2023-02-14T09:44:40.056Z,27.60
2023-02-14T09:47:18.946Z,27.38
2023-02-14T09:49:49.936Z,28.17
2023-02-14T09:52:20.126Z,28.05
2023-02-14T09:54:53.366Z,28.08
2023-02-14T09:57:22.997Z,28.30
2023-02-14T10:00:00.424Z,26.67
2023-02-14T10:02:30.415Z,27.30
2023-02-14T10:05:11.591Z,26.48
2023-02-14T10:08:16.897Z,28.27
2023-02-14T10:10:48.425Z,27.25
2023-02-14T10:13:38.235Z,25.55
2023-02-14T10:16:26.654Z,24.15
2023-02-14T10:19:01.659Z,24.60
2023-02-14T10:21:51.703Z,24.00
2023-02-14T10:24:30.069Z,24.23
2023-02-14T10:29:44.850Z,24.13
2023-02-14T10:32:15.411Z,26.88
2023-02-14T10:34:51.631Z,25.05
2023-02-14T10:37:33.086Z,23.88
2023-02-14T10:40:34.050Z,26.27
2023-02-14T10:43:48.026Z,23.95
2023-02-14T10:46:18.295Z,24.45
2023-02-14T10:49:01.056Z,23.35
2023-02-14T10:51:44.971Z,23.67
2023-02-14T10:54:22.644Z,23.80
2023-02-14T10:56:59.258Z,24.85
2023-02-14T11:00:28.058Z,23.10
2023-02-14T11:02:58.236Z,23.23
2023-02-14T11:05:34.446Z,21.67
2023-02-14T11:08:02.081Z,23.17
2023-02-14T11:10:34.235Z,21.50
2023-02-14T11:13:01.198Z,20.52
2023-02-14T11:15:35.733Z,21.55
2023-02-14T11:18:23.114Z,19.83
2023-02-14T11:21:04.356Z,21.08
2023-02-14T11:23:37.722Z,21.77
2023-02-14T11:26:10.434Z,20.73
2023-02-14T11:28:50.447Z,20.17
2023-02-14T11:31:26.880Z,21.88
2023-02-14T11:33:54.520Z,22.27
2023-02-14T11:36:21.823Z,22.63
2023-02-14T11:38:58.443Z,22.85
2023-02-14T11:41:26.111Z,20.35
2023-02-14T11:44:09.560Z,21.90
2023-02-14T11:46:51.072Z,20.55
2023-02-14T11:49:34.202Z,21.70
2023-02-14T11:52:16.351Z,21.80
2023-02-14T11:54:45.062Z,22.30
2023-02-14T11:57:27.909Z,21.38
2023-02-14T11:59:59.869Z,20.33
2023-02-14T12:02:32.937Z,19.95
2023-02-14T12:05:22.163Z,20.40
2023-02-14T12:07:52.457Z,19.75
2023-02-14T12:10:23.332Z,20.73
2023-02-14T12:12:56.730Z,20.08
2023-02-14T12:15:37.651Z,20.63
2023-02-14T12:18:26.141Z,19.33
2023-02-14T12:21:21.547Z,21.27
2023-02-14T12:24:00.470Z,19.85
2023-02-14T12:26:36.360Z,19.95
2023-02-14T12:29:09.279Z,18.95
2023-02-14T12:31:36.226Z,18.67
2023-02-14T12:34:04.571Z,18.75
2023-02-14T12:36:58.036Z,19.30
2023-02-14T12:39:24.837Z,19.30
2023-02-14T12:42:11.786Z,20.17
2023-02-14T12:45:03.116Z,19.67
2023-02-14T12:47:33.130Z,17.15
2023-02-14T12:50:23.636Z,21.25
2023-02-14T12:52:56.708Z,19.20
2023-02-14T12:55:55.812Z,20.02
2023-02-14T12:58:29.006Z,20.00
2023-02-14T13:01:29.087Z,19.02
2023-02-14T13:04:30.623Z,19.70
2023-02-14T13:07:22.412Z,20.35
2023-02-14T13:10:05.912Z,20.13
2023-02-14T13:12:44.842Z,20.92
2023-02-14T13:15:33.662Z,17.77
2023-02-14T13:18:07.534Z,19.00
2023-02-14T13:20:44.756Z,18.95
2023-02-14T13:23:28.737Z,18.17
2023-02-14T13:26:03.860Z,17.08
2023-02-14T13:28:31.695Z,19.63
2023-02-14T13:31:00.942Z,18.38
2023-02-14T13:33:38.150Z,18.80
2023-02-14T13:36:12.366Z,19.48
2023-02-14T13:38:45.935Z,18.35
2023-02-14T13:41:15.602Z,18.97
2023-02-14T13:43:51.121Z,18.10
2023-02-14T13:46:30.515Z,17.15
2023-02-14T13:49:04.543Z,18.05
2023-02-14T13:51:53.578Z,20.52
2023-02-14T13:54:40.856Z,19.70
2023-02-14T13:57:31.717Z,20.75
2023-02-14T14:00:17.449Z,18.67
2023-02-14T14:02:56.185Z,18.75
2023-02-14T14:05:42.818Z,18.85
2023-02-14T14:08:25.142Z,18.08
2023-02-14T14:10:56.670Z,19.42
2023-02-14T14:13:42.247Z,23.27
2023-02-14T14:16:25.662Z,20.75
2023-02-14T14:19:00.282Z,21.27
2023-02-14T14:21:44.734Z,20.13
2023-02-14T14:24:26.262Z,22.83
2023-02-14T14:27:12.971Z,20.40
2023-02-14T14:30:04.083Z,20.38
2023-02-14T14:32:36.578Z,19.65
2023-02-14T14:35:16.872Z,20.38
2023-02-14T14:37:50.111Z,20.63
2023-02-14T14:40:25.120Z,21.60
2023-02-14T14:42:53.216Z,20.92
2023-02-14T14:45:26.457Z,21.63
2023-02-14T14:47:56.668Z,18.35
2023-02-14T14:50:29.786Z,19.42
2023-02-14T14:53:11.733Z,18.80
2023-02-14T14:55:44.835Z,19.67
2023-02-14T14:58:33.885Z,20.20
2023-02-14T15:01:00.981Z,21.85
2023-02-14T15:03:29.393Z,20.10
2023-02-14T15:06:22.896Z,18.23
2023-02-14T15:08:52.573Z,19.15
2023-02-14T15:11:47.742Z,18.90
2023-02-14T15:30:03.977Z,19.38
2023-02-14T15:32:34.605Z,19.95
2023-02-14T15:35:04.473Z,21.48
2023-02-14T15:37:31.816Z,22.15
2023-02-14T15:39:59.980Z,20.77
2023-02-14T15:42:33.763Z,20.23
2023-02-14T15:45:17.002Z,21.27
2023-02-14T15:47:47.686Z,20.92
2023-02-14T15:50:25.260Z,21.30
2023-02-14T15:53:02.904Z,21.33
2023-02-14T15:55:31.013Z,20.98
2023-02-14T15:58:07.445Z,22.65
2023-02-14T16:00:35.572Z,23.45
2023-02-14T16:03:07.451Z,23.40
2023-02-14T16:05:34.844Z,21.70
2023-02-14T16:08:08.133Z,20.95
2023-02-14T16:10:37.270Z,23.88
2023-02-14T16:13:09.359Z,25.50
2023-02-14T16:15:38.700Z,23.88
2023-02-14T16:18:33.715Z,24.08
2023-02-14T16:21:21.102Z,24.55
2023-02-14T16:24:08.105Z,22.83
2023-02-14T16:26:38.104Z,21.80
2023-02-14T16:29:06.932Z,22.20
2023-02-14T16:31:34.591Z,22.67
2023-02-14T16:34:01.983Z,23.83
2023-02-14T16:36:34.058Z,25.25
2023-02-14T16:39:05.715Z,23.92
2023-02-14T16:41:34.576Z,23.27
2023-02-14T16:44:01.594Z,23.60
2023-02-14T16:46:35.270Z,22.45
2023-02-14T16:49:02.319Z,22.80
2023-02-14T16:51:32.967Z,22.95
2023-02-14T16:54:04.129Z,21.85
2023-02-14T16:56:38.517Z,22.05
2023-02-14T17:01:32.765Z,21.42
2023-02-14T17:04:00.302Z,22.40
2023-02-14T17:06:30.581Z,21.15
2023-02-14T17:09:00.567Z,21.17
2023-02-14T17:11:29.973Z,21.40
2023-02-14T17:13:57.097Z,20.98
2023-02-14T17:16:24.066Z,23.00
2023-02-14T17:18:52.105Z,22.95
2023-02-14T17:21:23.321Z,22.63
2023-02-14T17:23:50.270Z,20.98
2023-02-14T17:26:18.867Z,22.52
2023-02-14T17:28:46.671Z,23.98
2023-02-14T17:31:14.386Z,22.38
2023-02-14T17:33:41.406Z,21.38
2023-02-14T17:36:13.148Z,23.15
2023-02-14T17:38:43.529Z,22.10
2023-02-14T17:41:18.746Z,25.63
2023-02-14T17:43:46.275Z,24.52
2023-02-14T17:46:16.362Z,24.80
2023-02-14T17:48:46.250Z,25.45
2023-02-14T17:51:14.885Z,23.58
2023-02-14T17:53:42.394Z,23.77
2023-02-14T17:56:14.865Z,24.38
2023-02-14T17:58:41.840Z,23.33
2023-02-14T18:01:11.485Z,22.75
2023-02-14T18:03:39.183Z,24.95
2023-02-14T18:06:06.845Z,24.40
2023-02-14T18:08:39.592Z,25.83
2023-02-14T18:11:08.524Z,24.55
2023-02-14T18:13:35.794Z,24.27
2023-02-14T18:16:05.813Z,23.75
2023-02-14T18:18:32.888Z,25.05
2023-02-14T18:21:02.215Z,23.30
2023-02-14T18:23:31.288Z,23.75
2023-02-14T18:26:09.950Z,25.30
2023-02-14T18:28:37.103Z,25.60
2023-02-14T18:31:09.020Z,25.77
2023-02-14T18:33:36.858Z,25.98
2023-02-14T18:36:12.275Z,25.20
2023-02-14T18:38:40.403Z,25.13
2023-02-14T18:41:09.569Z,24.98
2023-02-14T18:43:36.936Z,26.95
2023-02-14T18:46:16.522Z,25.73
2023-02-14T18:48:44.073Z,27.55
2023-02-14T18:51:31.550Z,27.42
2023-02-14T18:53:59.954Z,26.13
2023-02-14T18:56:34.169Z,26.27
2023-02-14T18:59:04.148Z,26.90
2023-02-14T19:01:44.196Z,27.52
2023-02-14T19:04:13.361Z,27.00
2023-02-14T19:06:41.844Z,26.45
2023-02-14T19:09:11.348Z,28.92
2023-02-14T19:11:39.397Z,28.20
2023-02-14T19:14:10.141Z,26.17
2023-02-14T19:16:53.597Z,27.35
2023-02-14T19:19:20.513Z,26.27
2023-02-14T19:21:47.629Z,26.27
2023-02-14T19:24:18.538Z,28.02
2023-02-14T19:26:46.580Z,25.77
2023-02-14T19:29:15.858Z,27.90
2023-02-14T19:31:45.449Z,25.50
2023-02-14T19:34:29.929Z,25.77
2023-02-14T19:36:59.829Z,28.33
2023-02-14T19:39:31.300Z,26.58
2023-02-14T19:41:59.504Z,26.80
2023-02-14T19:44:28.806Z,27.30
2023-02-14T19:46:56.674Z,25.50
2023-02-14T19:49:23.835Z,27.20
2023-02-14T19:51:53.526Z,26.40
2023-02-14T19:54:25.675Z,28.15
2023-02-14T19:56:53.953Z,28.65
2023-02-14T19:59:22.747Z,29.00
2023-02-14T20:01:52.264Z,27.83
2023-02-14T20:04:23.162Z,29.92
2023-02-14T20:06:51.207Z,29.85
2023-02-14T20:09:19.311Z,28.73
2023-02-14T20:11:51.730Z,28.63
2023-02-14T20:14:20.033Z,28.73
2023-02-14T20:16:47.926Z,29.67
2023-02-14T20:19:17.652Z,28.15
2023-02-14T20:21:46.161Z,27.05
2023-02-14T20:24:16.438Z,28.60
2023-02-14T20:26:43.640Z,27.70
2023-02-14T20:29:11.259Z,27.63
2023-02-14T20:31:45.216Z,28.65
2023-02-14T20:34:13.324Z,29.15
2023-02-14T20:36:41.562Z,26.80
2023-02-14T20:39:10.701Z,28.17
2023-02-14T20:41:37.910Z,26.35
2023-02-14T20:44:08.115Z,28.08
2023-02-14T20:46:35.722Z,26.83
2023-02-14T20:49:05.544Z,27.85
2023-02-14T20:51:33.339Z,25.90
2023-02-14T20:54:03.097Z,27.10
2023-02-14T20:56:30.306Z,25.33
2023-02-14T20:58:57.146Z,26.08
2023-02-14T21:01:25.155Z,25.60
2023-02-14T21:03:53.776Z,27.38
2023-02-14T21:06:23.065Z,25.63
2023-02-14T21:08:50.461Z,25.75
2023-02-14T21:11:19.188Z,26.58
2023-02-14T21:13:46.781Z,24.65
2023-02-14T21:16:16.387Z,26.02
2023-02-14T21:18:47.968Z,24.77
2023-02-14T21:21:26.077Z,24.80
2023-02-14T21:23:53.435Z,25.23
2023-02-14T21:26:21.487Z,25.63
2023-02-14T21:28:48.531Z,24.27
2023-02-14T21:31:18.140Z,24.55
2023-02-14T21:33:45.077Z,25.38
2023-02-14T21:36:14.089Z,26.50
2023-02-14T21:38:41.769Z,25.27
2023-02-14T21:41:11.414Z,26.13
2023-02-14T21:43:41.045Z,26.27
2023-02-14T21:46:10.786Z,25.70
2023-02-14T21:48:56.794Z,26.98
2023-02-14T21:51:23.856Z,24.95
2023-02-14T21:53:51.618Z,24.85
2023-02-14T21:56:22.811Z,25.05
2023-02-14T21:58:52.187Z,25.70
2023-02-14T22:01:22.550Z,22.92
2023-02-14T22:03:50.038Z,24.73
2023-02-14T22:06:17.374Z,21.90
2023-02-14T22:08:44.744Z,20.38
2023-02-14T22:11:15.006Z,20.98
2023-02-14T22:13:42.914Z,20.13
2023-02-14T22:16:15.829Z,21.08
2023-02-14T22:18:42.894Z,20.63
2023-02-14T22:21:14.405Z,20.13
2023-02-14T22:23:41.702Z,20.20
2023-02-14T22:26:14.321Z,21.20
2023-02-14T22:28:42.672Z,20.42
2023-02-14T22:31:10.189Z,19.63
2023-02-14T22:33:38.012Z,20.13
2023-02-14T22:36:06.319Z,22.60
2023-02-14T22:38:34.562Z,21.77
2023-02-14T22:41:12.675Z,22.20
2023-02-14T22:43:41.092Z,22.17
2023-02-14T22:46:11.458Z,23.27
2023-02-14T22:48:39.369Z,22.65
2023-02-14T22:51:27.851Z,24.70
2023-02-14T22:54:06.137Z,25.83
2023-02-14T22:56:35.703Z,21.92
2023-02-14T22:59:06.344Z,21.02
2023-02-14T23:01:35.499Z,21.75
2023-02-14T23:04:03.804Z,21.35
2023-02-14T23:06:33.351Z,20.35
2023-02-14T23:09:00.866Z,20.48
2023-02-14T23:11:30.624Z,20.98
2023-02-14T23:14:16.824Z,19.67
2023-02-14T23:17:02.912Z,19.88
2023-02-14T23:19:51.263Z,20.55
2023-02-14T23:22:22.553Z,18.80
2023-02-14T23:24:54.458Z,19.35
2023-02-14T23:27:36.883Z,18.80
2023-02-14T23:30:05.812Z,17.90
2023-02-14T23:32:32.715Z,17.98
2023-02-14T23:34:59.543Z,17.25
2023-02-14T23:37:27.311Z,17.88
2023-02-14T23:39:54.267Z,17.42
2023-02-14T23:42:21.113Z,16.52
2023-02-14T23:44:49.369Z,18.00
2023-02-14T23:47:16.623Z,17.35
2023-02-14T23:49:43.863Z,18.23
2023-02-14T23:52:12.931Z,18.27
2023-02-14T23:54:40.440Z,17.42
2023-02-14T23:57:08.238Z,18.30
2023-02-14T23:59:35.271Z,18.10
